createdAt,value
2017-11-10T00:02:03.109Z,48.21
2017-11-10T00:04:28.898Z,48.13
2017-11-10T00:06:54.706Z,48.12
2017-11-10T00:09:20.541Z,48.02
2017-11-10T00:11:46.341Z,48.03
2017-11-10T00:14:12.178Z,47.90
2017-11-10T00:16:37.989Z,47.54
2017-11-10T00:19:04.933Z,47.85
2017-11-10T00:21:32.082Z,48.15
2017-11-10T00:23:57.869Z,48.55
2017-11-10T00:26:23.685Z,48.22
2017-11-10T00:28:49.462Z,48.57
2017-11-10T00:31:16.106Z,48.17
2017-11-10T00:33:41.946Z,47.90
2017-11-10T00:36:08.632Z,48.10
2017-11-10T00:38:34.410Z,48.76
2017-11-10T00:41:01.103Z,48.31
2017-11-10T00:43:26.916Z,48.57
2017-11-10T00:45:53.610Z,48.30
2017-11-10T00:48:20.333Z,48.74
2017-11-10T00:50:47.146Z,48.44
2017-11-10T00:53:14.004Z,48.90
2017-11-10T00:55:40.264Z,47.88
2017-11-10T00:58:06.077Z,47.83
2017-11-10T01:00:32.726Z,47.81
2017-11-10T01:02:58.502Z,48.19
2017-11-10T01:05:25.089Z,48.42
2017-11-10T01:07:50.914Z,48.18
2017-11-10T01:13:12.427Z,48.13
2017-11-10T01:15:38.221Z,47.95
2017-11-10T01:18:04.203Z,47.92
2017-11-10T01:20:29.994Z,47.89
2017-11-10T01:22:55.789Z,48.02
2017-11-10T01:25:21.587Z,48.26
2017-11-10T01:27:47.416Z,48.24
2017-11-10T01:30:13.269Z,48.38
2017-11-10T01:32:39.077Z,48.71
2017-11-10T01:35:06.003Z,47.82
2017-11-10T01:37:31.794Z,47.90
2017-11-10T01:39:57.677Z,47.72
2017-11-10T01:42:23.495Z,48.09
2017-11-10T01:44:49.303Z,48.43
2017-11-10T01:47:15.128Z,48.52
2017-11-10T01:49:42.868Z,48.40
2017-11-10T01:52:08.700Z,48.38
2017-11-10T01:54:34.493Z,47.92
2017-11-10T01:57:00.292Z,47.77
2017-11-10T01:59:26.079Z,47.73
2017-11-10T02:01:51.886Z,48.14
2017-11-10T02:04:17.680Z,48.22
2017-11-10T02:06:43.478Z,48.43
2017-11-10T02:09:09.304Z,48.74
2017-11-10T02:11:35.101Z,48.23
2017-11-10T02:14:00.888Z,48.73
2017-11-10T02:16:26.689Z,48.27
2017-11-10T02:18:52.482Z,48.23
2017-11-10T02:21:18.274Z,48.15
2017-11-10T02:23:44.059Z,48.22
2017-11-10T02:26:09.849Z,48.64
2017-11-10T02:28:35.656Z,48.43
2017-11-10T02:31:01.446Z,48.14
2017-11-10T02:33:27.236Z,48.04
2017-11-10T02:35:53.033Z,48.11
2017-11-10T02:38:18.859Z,48.90
2017-11-10T02:40:44.710Z,48.98
2017-11-10T02:43:10.520Z,48.89
2017-11-10T02:45:36.323Z,49.03
2017-11-10T02:48:02.110Z,49.20
2017-11-10T02:50:27.913Z,48.11
2017-11-10T02:52:53.832Z,48.41
2017-11-10T02:55:19.626Z,49.01
2017-11-10T02:57:45.414Z,49.18
2017-11-10T03:00:11.211Z,48.92
2017-11-10T03:02:37.005Z,48.56
2017-11-10T03:05:02.809Z,49.14
2017-11-10T03:07:28.699Z,49.19
2017-11-10T03:09:54.496Z,48.83
2017-11-10T03:12:20.353Z,48.32
2017-11-10T03:14:46.170Z,48.46
2017-11-10T03:17:11.961Z,48.59
2017-11-10T03:19:37.934Z,48.53
2017-11-10T03:22:03.761Z,48.76
2017-11-10T03:24:29.553Z,48.80
2017-11-10T03:26:55.383Z,49.13
2017-11-10T03:29:21.181Z,48.80
2017-11-10T03:31:47.006Z,48.54
2017-11-10T03:34:12.923Z,48.63
2017-11-10T03:36:38.730Z,48.61
2017-11-10T03:39:04.666Z,48.42
2017-11-10T03:41:30.465Z,48.69
2017-11-10T03:43:56.254Z,48.63
2017-11-10T03:46:22.065Z,48.72
2017-11-10T03:48:47.875Z,48.95
2017-11-10T03:51:13.662Z,48.78
2017-11-10T03:53:39.480Z,48.69
2017-11-10T03:56:05.276Z,48.50
2017-11-10T03:58:31.097Z,48.83
2017-11-10T04:00:56.890Z,48.90
2017-11-10T04:03:22.717Z,48.90
2017-11-10T04:05:48.564Z,48.99
2017-11-10T04:08:14.410Z,49.13
2017-11-10T04:10:40.223Z,49.04
2017-11-10T04:13:06.007Z,48.73
2017-11-10T04:15:31.849Z,48.66
2017-11-10T04:17:57.662Z,48.94
2017-11-10T04:20:23.462Z,48.66
2017-11-10T04:22:49.265Z,48.80
2017-11-10T04:25:15.075Z,48.97
2017-11-10T04:27:40.913Z,48.86
2017-11-10T04:30:06.709Z,48.70
2017-11-10T04:32:32.521Z,48.92
2017-11-10T04:34:58.321Z,48.73
2017-11-10T04:37:24.112Z,48.80
2017-11-10T04:39:49.901Z,48.71
2017-11-10T04:42:15.738Z,48.86
2017-11-10T04:44:41.529Z,49.00
2017-11-10T04:47:07.313Z,48.62
2017-11-10T04:49:33.142Z,48.81
2017-11-10T04:51:58.943Z,48.50
2017-11-10T04:54:24.737Z,49.60
2017-11-10T04:56:50.589Z,49.02
2017-11-10T04:59:16.381Z,49.18
2017-11-10T05:01:42.178Z,49.54
2017-11-10T05:04:08.001Z,49.57
2017-11-10T05:06:33.798Z,49.29
2017-11-10T05:08:59.589Z,48.97
2017-11-10T05:11:25.523Z,49.14
2017-11-10T05:13:52.111Z,49.23
2017-11-10T05:16:17.913Z,48.79
2017-11-10T05:18:43.753Z,49.35
2017-11-10T05:21:09.795Z,49.18
2017-11-10T05:23:36.271Z,48.74
2017-11-10T05:26:02.094Z,48.97
2017-11-10T05:28:27.893Z,49.45
2017-11-10T05:30:53.702Z,49.23
2017-11-10T05:33:19.520Z,49.37
2017-11-10T05:35:47.522Z,49.40
2017-11-10T05:38:13.354Z,49.19
2017-11-10T05:40:39.173Z,48.97
2017-11-10T05:43:04.977Z,48.60
2017-11-10T05:45:30.910Z,48.79
2017-11-10T05:47:56.706Z,49.10
2017-11-10T05:50:22.641Z,49.29
2017-11-10T05:52:48.440Z,49.17
2017-11-10T05:55:14.386Z,49.18
2017-11-10T05:57:40.211Z,49.26
2017-11-10T06:00:06.222Z,48.80
2017-11-10T06:02:32.062Z,48.68
2017-11-10T06:04:57.873Z,48.68
2017-11-10T06:07:23.693Z,48.48
2017-11-10T06:09:49.525Z,48.55
2017-11-10T06:12:15.314Z,48.83
2017-11-10T06:14:41.151Z,48.92
2017-11-10T06:17:06.953Z,48.83
2017-11-10T06:19:32.750Z,48.95
2017-11-10T06:21:58.591Z,48.66
2017-11-10T06:24:24.437Z,48.29
2017-11-10T06:26:50.642Z,48.67
2017-11-10T06:29:18.035Z,48.95
2017-11-10T06:31:43.868Z,48.98
2017-11-10T06:34:09.855Z,48.96
2017-11-10T06:36:35.653Z,49.01
2017-11-10T06:39:02.674Z,49.29
2017-11-10T06:41:28.489Z,48.58
2017-11-10T06:43:54.302Z,48.69
2017-11-10T06:46:20.102Z,49.20
2017-11-10T06:48:45.908Z,48.89
2017-11-10T06:51:11.717Z,49.54
2017-11-10T06:53:37.556Z,49.24
2017-11-10T06:56:03.385Z,48.80
2017-11-10T06:58:29.180Z,48.64
2017-11-10T07:00:55.033Z,49.15
2017-11-10T07:03:20.825Z,49.31
2017-11-10T07:05:46.724Z,49.56
2017-11-10T07:08:12.622Z,49.35
2017-11-10T07:10:38.591Z,48.85
2017-11-10T07:13:04.466Z,48.77
2017-11-10T07:18:19.073Z,49.46
2017-11-10T07:20:44.866Z,49.66
2017-11-10T07:23:10.831Z,49.06
2017-11-10T07:25:36.626Z,48.75
2017-11-10T07:28:02.430Z,48.53
2017-11-10T07:30:29.366Z,48.49
2017-11-10T07:32:55.244Z,48.45
2017-11-10T07:35:21.047Z,48.88
2017-11-10T07:37:46.981Z,48.99
2017-11-10T07:40:12.823Z,49.10
2017-11-10T07:42:38.636Z,49.07
2017-11-10T07:45:04.454Z,48.76
2017-11-10T07:47:30.282Z,48.56
2017-11-10T07:49:56.198Z,49.19
2017-11-10T07:52:21.986Z,49.04
2017-11-10T07:54:47.823Z,49.14
2017-11-10T07:57:13.657Z,49.05
2017-11-10T07:59:39.473Z,49.12
2017-11-10T08:02:05.398Z,49.26
2017-11-10T08:04:31.301Z,48.91
2017-11-10T08:06:58.294Z,48.87
2017-11-10T08:09:24.191Z,48.93
2017-11-10T08:11:50.010Z,49.07
2017-11-10T08:14:15.798Z,49.25
2017-11-10T08:16:41.634Z,49.22
2017-11-10T08:19:07.414Z,49.05
2017-11-10T08:21:33.216Z,48.91
2017-11-10T08:23:59.066Z,49.41
2017-11-10T08:26:24.849Z,48.96
2017-11-10T08:28:50.746Z,48.86
2017-11-10T08:31:16.542Z,49.09
2017-11-10T08:33:42.335Z,49.18
2017-11-10T08:36:08.130Z,49.04
2017-11-10T08:38:33.929Z,48.96
2017-11-10T08:40:59.770Z,49.43
2017-11-10T08:43:25.754Z,49.02
2017-11-10T08:45:51.570Z,48.87
2017-11-10T08:48:17.359Z,48.81
2017-11-10T08:50:43.151Z,49.58
2017-11-10T08:53:08.940Z,49.31
2017-11-10T08:55:34.733Z,49.22
2017-11-10T08:58:00.569Z,49.19
2017-11-10T09:00:26.360Z,49.19
2017-11-10T09:02:52.371Z,49.25
2017-11-10T09:05:18.179Z,49.07
2017-11-10T09:07:43.989Z,49.04
2017-11-10T09:10:09.784Z,49.10
2017-11-10T09:12:35.572Z,48.99
2017-11-10T09:15:01.365Z,49.22
2017-11-10T09:17:27.212Z,49.54
2017-11-10T09:20:09.577Z,49.04
2017-11-10T09:22:35.583Z,49.24
2017-11-10T09:25:01.388Z,48.87
2017-11-10T09:27:28.172Z,48.81
2017-11-10T09:29:54.063Z,48.60
2017-11-10T09:32:27.952Z,48.94
2017-11-10T09:34:56.778Z,49.30
2017-11-10T09:37:22.682Z,49.31
2017-11-10T09:39:51.311Z,49.53
2017-11-10T09:42:23.295Z,49.26
2017-11-10T09:44:55.152Z,49.38
2017-11-10T09:50:26.134Z,49.10
2017-11-10T09:55:56.736Z,49.48
2017-11-10T09:58:28.530Z,49.44
2017-11-10T10:00:58.317Z,49.37
2017-11-10T10:03:31.035Z,49.54
2017-11-10T10:05:56.849Z,49.23
2017-11-10T10:11:29.899Z,49.18
2017-11-10T10:14:01.806Z,49.01
2017-11-10T10:16:33.534Z,49.24
2017-11-10T10:19:03.281Z,49.25
2017-11-10T10:21:35.265Z,49.43
2017-11-10T10:24:01.152Z,49.24
2017-11-10T10:26:28.851Z,49.14
2017-11-10T10:28:54.788Z,49.01
2017-11-10T10:31:20.613Z,48.97
2017-11-10T10:33:46.413Z,48.84
2017-11-10T10:36:12.282Z,49.26
2017-11-10T10:38:38.078Z,49.03
2017-11-10T10:41:03.878Z,49.35
2017-11-10T10:43:29.682Z,49.07
2017-11-10T10:45:55.482Z,49.03
2017-11-10T10:48:21.284Z,48.89
2017-11-10T10:50:47.101Z,48.80
2017-11-10T10:53:12.923Z,48.94
2017-11-10T10:55:38.803Z,49.05
2017-11-10T10:58:04.777Z,49.33
2017-11-10T11:00:30.757Z,49.03
2017-11-10T11:02:56.581Z,49.00
2017-11-10T11:05:22.376Z,49.15
2017-11-10T11:07:48.166Z,48.94
2017-11-10T11:10:13.953Z,48.75
2017-11-10T11:12:39.739Z,48.86
2017-11-10T11:15:05.543Z,49.01
2017-11-10T11:17:31.433Z,49.48
2017-11-10T11:19:57.238Z,49.12
2017-11-10T11:22:23.030Z,48.78
2017-11-10T11:24:48.823Z,48.84
2017-11-10T11:27:14.762Z,48.61
2017-11-10T11:29:40.687Z,48.82
2017-11-10T11:32:06.472Z,48.99
2017-11-10T11:34:32.261Z,49.06
2017-11-10T11:36:58.046Z,49.78
2017-11-10T11:39:24.172Z,48.87
2017-11-10T11:41:50.026Z,48.63
2017-11-10T11:44:15.817Z,49.05
2017-11-10T11:46:41.617Z,49.03
2017-11-10T11:49:07.567Z,49.12
2017-11-10T11:51:33.360Z,48.99
2017-11-10T11:53:59.150Z,48.81
2017-11-10T11:56:24.954Z,49.04
2017-11-10T11:58:50.744Z,49.11
2017-11-10T12:01:16.583Z,48.87
2017-11-10T12:03:42.389Z,48.71
2017-11-10T12:06:08.182Z,48.87
2017-11-10T12:08:33.978Z,48.95
2017-11-10T12:10:59.802Z,49.02
2017-11-10T12:13:25.590Z,48.91
2017-11-10T12:15:51.425Z,49.19
2017-11-10T12:18:17.221Z,49.18
2017-11-10T12:20:43.084Z,48.91
2017-11-10T12:23:08.963Z,48.88
2017-11-10T12:25:34.965Z,48.79
2017-11-10T12:28:00.833Z,48.91
2017-11-10T12:30:26.638Z,48.98
2017-11-10T12:32:52.430Z,49.04
2017-11-10T12:35:18.286Z,48.95
2017-11-10T12:37:44.076Z,48.62
2017-11-10T12:40:09.902Z,48.48
2017-11-10T12:42:35.794Z,48.50
2017-11-10T12:45:01.618Z,49.07
2017-11-10T12:47:27.417Z,49.12
2017-11-10T12:49:53.215Z,49.14
2017-11-10T12:52:19.175Z,49.17
2017-11-10T12:54:44.979Z,48.98
2017-11-10T12:57:10.781Z,48.65
2017-11-10T12:59:36.658Z,48.88
2017-11-10T13:02:02.562Z,49.16
2017-11-10T13:04:28.343Z,49.18
2017-11-10T13:06:54.158Z,49.21
2017-11-10T13:09:19.950Z,49.27
2017-11-10T13:11:45.886Z,49.31
2017-11-10T13:14:11.781Z,49.26
2017-11-10T13:16:37.618Z,49.16
2017-11-10T13:19:03.424Z,49.15
2017-11-10T13:21:29.267Z,49.06
2017-11-10T13:23:55.074Z,49.04
2017-11-10T13:26:20.885Z,49.39
2017-11-10T13:28:46.695Z,49.33
2017-11-10T13:31:12.532Z,49.69
2017-11-10T13:33:38.351Z,49.36
2017-11-10T13:36:04.143Z,49.43
2017-11-10T13:38:29.942Z,49.34
2017-11-10T13:40:55.738Z,49.13
2017-11-10T13:43:21.538Z,49.17
2017-11-10T13:45:47.334Z,49.23
2017-11-10T13:48:13.186Z,49.21
2017-11-10T13:50:38.975Z,49.28
2017-11-10T13:53:04.781Z,49.41
2017-11-10T13:55:30.584Z,49.44
2017-11-10T13:57:56.521Z,49.50
2017-11-10T14:00:22.357Z,49.17
2017-11-10T14:02:48.152Z,49.31
2017-11-10T14:05:14.075Z,49.20
2017-11-10T14:07:39.889Z,49.57
2017-11-10T14:10:05.854Z,49.10
2017-11-10T14:12:31.678Z,49.23
2017-11-10T14:14:57.577Z,49.26
2017-11-10T14:17:23.384Z,49.15
2017-11-10T14:19:49.166Z,49.23
2017-11-10T14:22:14.961Z,49.14
2017-11-10T14:24:40.744Z,49.07
2017-11-10T14:27:06.582Z,49.38
2017-11-10T14:29:32.375Z,49.42
2017-11-10T14:31:58.174Z,49.09
2017-11-10T14:34:23.965Z,49.39
2017-11-10T14:36:49.764Z,49.22
2017-11-10T14:39:15.545Z,48.94
2017-11-10T14:41:41.334Z,49.09
2017-11-10T14:44:07.181Z,49.09
2017-11-10T14:46:32.970Z,49.19
2017-11-10T14:48:58.757Z,49.02
2017-11-10T14:51:24.554Z,48.73
2017-11-10T14:53:50.353Z,49.12
2017-11-10T14:56:16.141Z,49.13
2017-11-10T14:58:41.983Z,49.36
2017-11-10T15:01:07.777Z,49.38
2017-11-10T15:03:33.561Z,49.31
2017-11-10T15:05:59.369Z,49.51
2017-11-10T15:08:25.150Z,49.26
2017-11-10T15:10:50.961Z,49.49
2017-11-10T15:13:16.764Z,49.40
2017-11-10T15:15:42.557Z,49.53
2017-11-10T15:18:12.127Z,49.43
2017-11-10T15:20:37.972Z,49.27
2017-11-10T15:23:03.764Z,49.42
2017-11-10T15:25:29.552Z,49.27
2017-11-10T15:27:55.342Z,49.26
2017-11-10T15:30:21.154Z,48.95
2017-11-10T15:32:46.928Z,49.02
2017-11-10T15:35:12.769Z,49.02
2017-11-10T15:37:38.562Z,49.09
2017-11-10T15:40:04.341Z,49.28
2017-11-10T15:42:30.144Z,49.42
2017-11-10T15:44:55.945Z,49.17
2017-11-10T15:47:21.786Z,49.19
2017-11-10T15:49:47.593Z,49.42
2017-11-10T15:52:13.394Z,49.20
2017-11-10T15:54:39.221Z,49.11
2017-11-10T15:57:05.026Z,49.23
2017-11-10T15:59:30.846Z,49.30
2017-11-10T16:01:56.658Z,49.18
2017-11-10T16:04:22.502Z,49.41
2017-11-10T16:06:48.283Z,49.23
2017-11-10T16:09:14.113Z,49.27
2017-11-10T16:11:39.905Z,49.20
2017-11-10T16:14:05.699Z,49.22
2017-11-10T16:16:31.488Z,49.31
2017-11-10T16:18:57.285Z,49.19
2017-11-10T16:21:23.070Z,49.34
2017-11-10T16:23:48.876Z,49.11
2017-11-10T16:26:14.701Z,49.29
2017-11-10T16:28:40.487Z,49.21
2017-11-10T16:31:06.318Z,49.16
2017-11-10T16:33:32.113Z,49.02
2017-11-10T16:35:57.942Z,49.21
2017-11-10T16:38:23.726Z,49.38
2017-11-10T16:40:49.561Z,49.16
2017-11-10T16:43:15.336Z,49.27
2017-11-10T16:45:41.105Z,49.27
2017-11-10T16:48:06.901Z,49.31
2017-11-10T16:50:32.692Z,49.31
2017-11-10T16:52:58.516Z,49.35
2017-11-10T16:55:24.297Z,49.17
2017-11-10T16:57:50.278Z,49.13
2017-11-10T17:00:17.888Z,48.94
2017-11-10T17:02:43.819Z,49.18
2017-11-10T17:05:09.630Z,49.36
2017-11-10T17:07:35.413Z,49.46
2017-11-10T17:10:01.205Z,49.58
2017-11-10T17:12:27.123Z,49.25
2017-11-10T17:14:52.937Z,49.39
2017-11-10T17:17:18.722Z,49.41
2017-11-10T17:19:44.521Z,49.21
2017-11-10T17:22:10.306Z,49.32
2017-11-10T17:24:36.126Z,49.21
2017-11-10T17:27:01.930Z,49.24
2017-11-10T17:29:27.710Z,49.38
2017-11-10T17:31:53.514Z,49.65
2017-11-10T17:34:19.301Z,49.41
2017-11-10T17:36:45.092Z,49.58
2017-11-10T17:39:10.922Z,49.57
2017-11-10T17:41:36.706Z,49.15
2017-11-10T17:44:02.515Z,48.77
2017-11-10T17:46:28.314Z,49.43
2017-11-10T17:48:54.123Z,49.45
2017-11-10T17:51:20.037Z,49.41
2017-11-10T17:53:45.840Z,49.15
2017-11-10T17:56:11.631Z,49.28
2017-11-10T17:58:37.460Z,49.28
2017-11-10T18:01:03.331Z,49.06
2017-11-10T18:03:29.125Z,49.03
2017-11-10T18:05:54.974Z,48.98
2017-11-10T18:08:20.778Z,49.32
2017-11-10T18:10:46.654Z,49.27
2017-11-10T18:13:12.475Z,49.17
2017-11-10T18:15:38.327Z,49.19
2017-11-10T18:18:04.127Z,48.94
2017-11-10T18:20:29.913Z,49.02
2017-11-10T18:22:55.715Z,48.78
2017-11-10T18:25:21.502Z,49.21
2017-11-10T18:27:47.340Z,49.29
2017-11-10T18:30:13.129Z,49.17
2017-11-10T18:32:39.057Z,49.50
2017-11-10T18:35:04.866Z,49.02
2017-11-10T18:37:30.822Z,49.10
2017-11-10T18:39:56.654Z,49.30
2017-11-10T18:42:22.546Z,49.53
2017-11-10T18:44:48.340Z,49.36
2017-11-10T18:47:14.211Z,49.21
2017-11-10T18:49:40.102Z,49.19
2017-11-10T18:52:05.912Z,49.36
2017-11-10T18:54:32.591Z,49.01
2017-11-10T18:56:58.576Z,48.98
2017-11-10T18:59:24.371Z,49.15
2017-11-10T19:01:50.166Z,49.27
2017-11-10T19:04:15.968Z,49.72
2017-11-10T19:06:41.759Z,49.50
2017-11-10T19:09:07.587Z,49.18
2017-11-10T19:11:33.502Z,48.89
2017-11-10T19:13:59.314Z,48.89
2017-11-10T19:16:25.246Z,48.77
2017-11-10T19:18:51.070Z,48.65
2017-11-10T19:21:16.868Z,48.46
2017-11-10T19:23:42.674Z,48.31
2017-11-10T19:26:08.465Z,48.72
2017-11-10T19:28:34.276Z,48.62
2017-11-10T19:31:00.091Z,48.42
2017-11-10T19:33:25.909Z,48.68
2017-11-10T19:35:51.707Z,48.82
2017-11-10T19:38:17.508Z,48.85
2017-11-10T19:40:43.379Z,50.01
2017-11-10T19:43:09.212Z,48.48
2017-11-10T19:45:35.012Z,48.24
2017-11-10T19:48:00.806Z,48.21
2017-11-10T19:50:26.651Z,48.54
2017-11-10T19:52:52.476Z,48.77
2017-11-10T19:55:20.331Z,48.49
2017-11-10T19:57:46.134Z,48.35
2017-11-10T20:00:11.940Z,48.14
2017-11-10T20:02:37.779Z,48.23
2017-11-10T20:05:03.589Z,48.02
2017-11-10T20:07:29.401Z,48.06
2017-11-10T20:09:55.196Z,48.17
2017-11-10T20:12:21.037Z,48.19
2017-11-10T20:14:47.073Z,47.96
2017-11-10T20:17:12.927Z,48.04
2017-11-10T20:19:38.735Z,48.29
2017-11-10T20:22:04.543Z,48.35
2017-11-10T20:24:30.342Z,48.15
2017-11-10T20:26:56.178Z,48.25
2017-11-10T20:29:22.377Z,48.18
2017-11-10T20:31:48.182Z,47.92
2017-11-10T20:34:13.976Z,47.92
2017-11-10T20:36:39.770Z,47.94
2017-11-10T20:39:05.794Z,48.06
2017-11-10T20:41:31.598Z,48.17
2017-11-10T20:43:57.460Z,48.33
2017-11-10T20:46:23.267Z,48.38
2017-11-10T20:48:49.195Z,48.39
2017-11-10T20:51:15.086Z,48.30
2017-11-10T20:53:41.029Z,47.98
2017-11-10T20:56:06.886Z,48.19
2017-11-10T20:58:32.709Z,48.25
2017-11-10T21:00:58.518Z,48.40
2017-11-10T21:03:24.424Z,48.23
2017-11-10T21:05:50.242Z,48.17
2017-11-10T21:08:16.080Z,48.16
2017-11-10T21:10:41.926Z,47.92
2017-11-10T21:13:07.877Z,48.12
2017-11-10T21:15:33.769Z,48.19
2017-11-10T21:17:59.586Z,48.06
2017-11-10T21:20:25.407Z,48.33
2017-11-10T21:22:51.264Z,47.80
2017-11-10T21:25:17.068Z,47.61
2017-11-10T21:27:42.962Z,47.80
2017-11-10T21:30:09.167Z,47.80
2017-11-10T21:32:34.973Z,48.15
2017-11-10T21:35:00.782Z,48.20
2017-11-10T21:37:26.592Z,48.16
2017-11-10T21:39:52.433Z,48.13
2017-11-10T21:42:18.249Z,47.63
2017-11-10T21:44:44.094Z,47.59
2017-11-10T21:47:09.905Z,47.83
2017-11-10T21:49:36.551Z,48.04
2017-11-10T21:52:02.363Z,48.45
2017-11-10T21:54:28.217Z,49.23
2017-11-10T21:56:54.033Z,47.95
2017-11-10T21:59:19.844Z,48.01
2017-11-10T22:01:45.651Z,48.03
2017-11-10T22:04:11.446Z,48.05
2017-11-10T22:06:37.254Z,47.76
2017-11-10T22:09:03.066Z,47.78
2017-11-10T22:11:28.863Z,47.51
2017-11-10T22:13:54.716Z,47.79
2017-11-10T22:16:20.529Z,47.73
2017-11-10T22:18:46.366Z,47.83
2017-11-10T22:21:12.168Z,47.65
2017-11-10T22:23:38.015Z,47.72
2017-11-10T22:26:03.810Z,47.55
2017-11-10T22:28:29.616Z,47.29
2017-11-10T22:30:55.454Z,47.36
2017-11-10T22:33:21.261Z,47.47
2017-11-10T22:35:47.063Z,47.95
2017-11-10T22:38:12.858Z,47.58
2017-11-10T22:40:38.676Z,47.51
2017-11-10T22:43:04.486Z,47.36
2017-11-10T22:45:30.290Z,47.71
2017-11-10T22:47:56.098Z,47.41
2017-11-10T22:50:21.922Z,47.35
2017-11-10T22:52:47.762Z,47.47
2017-11-10T22:55:13.565Z,47.70
2017-11-10T22:57:39.357Z,47.53
2017-11-10T23:00:05.168Z,47.73
2017-11-10T23:02:31.008Z,48.15
2017-11-10T23:04:56.826Z,47.46
2017-11-10T23:07:23.592Z,47.29
2017-11-10T23:09:49.422Z,47.24
2017-11-10T23:12:15.241Z,47.05
2017-11-10T23:14:41.045Z,47.38
2017-11-10T23:17:06.843Z,47.65
2017-11-10T23:19:32.702Z,47.30
2017-11-10T23:21:58.522Z,47.28
2017-11-10T23:24:24.334Z,47.19
2017-11-10T23:26:50.182Z,47.10
2017-11-10T23:29:15.979Z,47.08
2017-11-10T23:31:41.773Z,47.02
2017-11-10T23:34:07.683Z,46.63
2017-11-10T23:36:33.496Z,46.74
2017-11-10T23:38:59.291Z,47.28
2017-11-10T23:41:25.089Z,47.32
2017-11-10T23:43:50.894Z,47.79
2017-11-10T23:46:16.689Z,47.00
2017-11-10T23:48:42.527Z,47.32
2017-11-10T23:51:08.334Z,47.20
2017-11-10T23:53:34.157Z,47.24
2017-11-10T23:55:59.963Z,47.16
2017-11-10T23:58:25.753Z,46.80
